D/T METAR WX W/SPE G/SPE TEMP DEWP FEEL
31/01/23 13:20 EGNX 311320Z 28021G33KT 9999 FEW035 09/02 Q1022 24.2mph 38.0mph 9°C 2°C 7.4°C
31/01/23 12:20 EGNX 311220Z 28023G35KT 9999 FEW032 09/01 Q1021 26.5mph 40.3mph 9°C 1°C 7.1°C
31/01/23 05:20 EGNX 310520Z 21013KT 9999 SCT015 SCT035 06/03 Q1021 15.0mph 6°C 3°C 4.7°C
31/01/23 06:50 EGNX 310650Z 21009KT 9999 SCT014 SCT023 07/05 Q1020 10.4mph 7°C 5°C 6.3°C
31/01/23 05:50 EGNX 310550Z 21010KT 9999 BKN016 06/04 Q1020 11.5mph 6°C 4°C 5.0°C
31/01/23 04:20 EGNX 310420Z 21014KT 9999 SCT016 BKN026 06/03 Q1021 16.1mph 6°C 3°C 4.7°C
30/01/23 12:50 EGNX 301250Z 28016KT 9999 SCT026 08/03 Q1024 18.4mph 8°C 3°C 6.7°C
30/01/23 11:50 EGNX 301150Z 27013KT 9999 BKN020 08/04 Q1025 15.0mph 8°C 4°C 7.0°C
30/01/23 10:50 EGNX 301050Z 27014KT 9999 FEW020 07/03 Q1024 16.1mph 7°C 3°C 5.7°C
30/01/23 10:20 EGNX 301020Z 27018KT 9999 FEW015 07/03 Q1024 20.7mph 7°C 3°C 5.7°C
30/01/23 09:50 EGNX 300950Z 27020KT 9999 FEW024 07/03 Q1023 23.0mph 7°C 3°C 5.7°C
30/01/23 07:50 EGNX 300750Z 27017KT 9999 SCT029 06/02 Q1021 19.6mph 6°C 2°C 4.4°C
30/01/23 05:20 EGNX 300520Z 27011KT 9999 SCT026 05/01 Q1021 12.7mph 5°C 1°C 3.1°C
09/01/23 06:20 EGNX 090620Z 22011KT 9999 FEW038 05/03 Q0992 12.7mph 5°C 3°C 3.7°C
09/01/23 05:50 EGNX 090550Z 23014KT 9999 FEW038 05/03 Q0991 16.1mph 5°C 3°C 3.7°C
09/01/23 05:20 EGNX 090520Z 22011KT CAVOK 04/03 Q0991 12.7mph 4°C 3°C 2.7°C
09/01/23 04:50 EGNX 090450Z 22012KT 9999 FEW044 04/03 Q0991 13.8mph 4°C 3°C 2.7°C
09/01/23 04:20 EGNX 090420Z 23013KT 9999 SCT044 04/03 Q0990 15.0mph 4°C 3°C 2.7°C
09/01/23 03:50 EGNX 090350Z 23015KT CAVOK 04/03 Q0990 17.3mph 4°C 3°C 2.7°C
09/01/23 02:50 EGNX 090250Z 23014KT CAVOK 04/03 Q0989 16.1mph 4°C 3°C 2.7°C
09/01/23 02:20 EGNX 090220Z 23013KT CAVOK 04/03 Q0989 15.0mph 4°C 3°C 2.7°C
09/01/23 01:20 EGNX 090120Z 23011KT 9999 FEW027 04/03 Q0988 12.7mph 4°C 3°C 2.7°C
09/01/23 00:50 EGNX 090050Z 22010KT 9999 BKN028 04/03 Q0988 11.5mph 4°C 3°C 2.7°C
09/01/23 00:20 EGNX 090020Z 22009KT 9999 BKN032 04/02 Q0987 10.4mph 4°C 2°C 2.4°C
08/01/23 23:50 EGNX 082350Z 22011KT 9999 BKN038 04/02 Q0987 12.7mph 4°C 2°C 2.4°C
08/01/23 23:20 EGNX 082320Z 22010KT 9999 BKN030 04/03 Q0987 11.5mph 4°C 3°C 2.7°C
08/01/23 22:50 EGNX 082250Z 21010KT 9999 BKN032 05/03 Q0987 11.5mph 5°C 3°C 3.7°C
08/01/23 22:20 EGNX 082220Z 21011KT 9999 SCT037 04/02 Q0986 12.7mph 4°C 2°C 2.4°C
08/01/23 21:50 EGNX 082150Z 20012KT 9999 FEW046 04/02 Q0986 13.8mph 4°C 2°C 2.4°C
08/01/23 20:20 EGNX 082020Z 20013KT CAVOK 04/02 Q0986 15.0mph 4°C 2°C 2.4°C
08/01/23 19:20 EGNX 081920Z 21012KT CAVOK 04/02 Q0986 13.8mph 4°C 2°C 2.4°C
08/01/23 17:50 EGNX 081750Z 21009KT CAVOK 05/04 Q0986 10.4mph 5°C 4°C 4.0°C
08/01/23 17:20 EGNX 081720Z 22010KT 9999 FEW029 06/04 Q0986 11.5mph 6°C 4°C 5.0°C
08/01/23 16:50 EGNX 081650Z 22012KT 9999 VCSH FEW012 SCT030 06/04 Q0986 VCSH 13.8mph 6°C 4°C 5.0°C
08/01/23 16:20 EGNX 081620Z 22009KT 9999 FEW015 06/04 Q0985 10.4mph 6°C 4°C 5.0°C
08/01/23 15:20 EGNX 081520Z 23009KT 9999 -RA SCT021 BKN037 07/04 Q0986 -RA 10.4mph 7°C 4°C 6.0°C
08/01/23 14:20 EGNX 081420Z 20014KT 9999 -RA BKN024 08/05 Q0985 -RA 16.1mph 8°C 5°C 7.3°C
08/01/23 13:50 EGNX 081350Z 20014KT 9999 SCT036 08/06 Q0985 16.1mph 8°C 6°C 7.6°C
08/01/23 13:20 EGNX 081320Z 20013KT 9999 VCSH FEW012CB SCT020 07/05 Q0986 VCSH 15.0mph 7°C 5°C 6.3°C
08/01/23 12:50 EGNX 081250Z 24019KT 7000 -SHRA FEW012CB BKN014 05/03 Q0986 RESHRA -SHRA 21.9mph 5°C 3°C 3.7°C
08/01/23 12:20 EGNX 081220Z 18018KT 9999 5000NW -SHRA FEW016CB BKN022 08/05 Q0986 -SHRA 20.7mph 8°C 5°C 7.3°C
08/01/23 11:50 EGNX 081150Z 17016KT 9999 SCT015 08/05 Q0987 18.4mph 8°C 5°C 7.3°C
08/01/23 11:20 EGNX 081120Z 17014KT 9999 FEW022 08/05 Q0988 16.1mph 8°C 5°C 7.3°C
08/01/23 10:50 EGNX 081050Z 17014KT 9999 FEW020 07/05 Q0988 16.1mph 7°C 5°C 6.3°C
08/01/23 10:20 EGNX 081020Z 18012G22KT 100V210 9999 FEW020 06/04 Q0989 13.8mph 25.3mph 6°C 4°C 5.0°C
08/01/23 09:50 EGNX 080950Z 17011KT 150V220 9999 FEW016 06/04 Q0989 12.7mph 6°C 4°C 5.0°C
08/01/23 09:20 EGNX 080920Z 17009KT 9999 FEW014 06/04 Q0990 10.4mph 6°C 4°C 5.0°C
08/01/23 08:20 EGNX 080820Z 19010KT 9999 FEW014 06/04 Q0990 11.5mph 6°C 4°C 5.0°C
08/01/23 07:50 EGNX 080750Z 20013KT 9999 SCT016 06/04 Q0991 15.0mph 6°C 4°C 5.0°C
08/01/23 07:20 EGNX 080720Z 19011KT 9999 FEW016 06/04 Q0991 12.7mph 6°C 4°C 5.0°C
08/01/23 06:50 EGNX 080650Z 18012KT 9999 FEW039 06/04 Q0990 13.8mph 6°C 4°C 5.0°C
08/01/23 06:20 EGNX 080620Z 19013KT 9999 SCT039 06/04 Q0991 15.0mph 6°C 4°C 5.0°C
08/01/23 05:50 EGNX 080550Z 19012KT 9999 -SHRA SCT030 06/04 Q0991 -SHRA 13.8mph 6°C 4°C 5.0°C
08/01/23 05:20 EGNX 080520Z 20014KT 9999 -SHRA SCT030 BKN046 07/04 Q0991 -SHRA 16.1mph 7°C 4°C 6.0°C
08/01/23 04:50 EGNX 080450Z 19012KT CAVOK 07/04 Q0991 13.8mph 7°C 4°C 6.0°C
08/01/23 04:20 EGNX 080420Z 19012KT CAVOK 07/04 Q0991 13.8mph 7°C 4°C 6.0°C
08/01/23 03:50 EGNX 080350Z 20013KT 9999 FEW032 07/04 Q0991 15.0mph 7°C 4°C 6.0°C
08/01/23 03:20 EGNX 080320Z 19012KT 9999 FEW035 07/04 Q0991 13.8mph 7°C 4°C 6.0°C
08/01/23 02:50 EGNX 080250Z 19014KT CAVOK 07/04 Q0991 16.1mph 7°C 4°C 6.0°C
08/01/23 02:20 EGNX 080220Z 20017KT CAVOK 08/04 Q0991 19.6mph 8°C 4°C 7.0°C
08/01/23 01:50 EGNX 080150Z 20016KT 9999 FEW022 08/04 Q0991 18.4mph 8°C 4°C 7.0°C
08/01/23 01:20 EGNX 080120Z 20017KT CAVOK 08/04 Q0991 19.6mph 8°C 4°C 7.0°C
08/01/23 00:20 EGNX 080020Z 20016KT CAVOK 08/04 Q0991 18.4mph 8°C 4°C 7.0°C
07/01/23 23:50 EGNX 072350Z 20013KT 9999 BKN038 07/04 Q0992 15.0mph 7°C 4°C 6.0°C
07/01/23 23:20 EGNX 072320Z 20017KT 9999 FEW021 BKN037 07/04 Q0992 19.6mph 7°C 4°C 6.0°C
07/01/23 22:50 EGNX 072250Z 19016KT 9999 FEW023 SCT035 07/04 Q0992 18.4mph 7°C 4°C 6.0°C
07/01/23 22:20 EGNX 072220Z 20018KT 9999 SCT035 07/04 Q0992 20.7mph 7°C 4°C 6.0°C
07/01/23 21:50 EGNX 072150Z 20016KT 9999 FEW018 SCT035 07/04 Q0992 18.4mph 7°C 4°C 6.0°C
07/01/23 21:20 EGNX 072120Z 20017KT 9999 SCT032 06/04 Q0992 19.6mph 6°C 4°C 5.0°C
07/01/23 20:50 EGNX 072050Z 20018KT 9999 FEW015 06/04 Q0992 20.7mph 6°C 4°C 5.0°C
07/01/23 20:20 EGNX 072020Z 19016KT 9999 FEW015 06/04 Q0992 18.4mph 6°C 4°C 5.0°C
07/01/23 19:50 EGNX 071950Z 20014KT 9999 FEW018 07/04 Q0992 16.1mph 7°C 4°C 6.0°C
07/01/23 19:20 EGNX 071920Z 22012KT 9999 FEW012 07/05 Q0991 13.8mph 7°C 5°C 6.3°C
07/01/23 18:50 EGNX 071850Z 22015KT 7000 -RA BKN013 BKN024 08/06 Q0991 -RA 17.3mph 8°C 6°C 7.6°C
07/01/23 18:20 EGNX 071820Z 21017KT 9999 SCT013 SCT026 08/06 Q0991 RERA 19.6mph 8°C 6°C 7.6°C
07/01/23 17:50 EGNX 071750Z 19015KT 8000 RA SCT014 BKN021 07/06 Q0990 RERA RA 17.3mph 7°C 6°C 6.6°C
07/01/23 17:20 EGNX 071720Z 21015KT 5000 RA BKN013 BKN028 08/06 Q0990 RA 17.3mph 8°C 6°C 7.6°C
07/01/23 16:20 EGNX 071620Z 19009KT 9999 SCT020 09/06 Q0991 10.4mph 9°C 6°C 8.6°C
07/01/23 15:50 EGNX 071550Z 19012KT 9999 FEW015 09/06 Q0991 13.8mph 9°C 6°C 8.6°C
07/01/23 15:20 EGNX 071520Z 19013KT 9999 FEW015 10/06 Q0991 15.0mph 10°C 6°C 9.6°C
07/01/23 14:50 EGNX 071450Z 20015KT 9999 FEW015 10/07 Q0991 17.3mph 10°C 7°C 10.0°C
07/01/23 14:20 EGNX 071420Z 19014KT 9999 FEW018CB 11/08 Q0992 16.1mph 11°C 8°C 11.4°C
07/01/23 13:50 EGNX 071350Z 19014KT 9999 FEW015 11/08 Q0991 16.1mph 11°C 8°C 11.4°C
07/01/23 12:50 EGNX 071250Z 20016KT 9999 FEW014 SCT034 11/08 Q0992 18.4mph 11°C 8°C 11.4°C
07/01/23 12:20 EGNX 071220Z 20017KT 9999 FEW008 SCT018 11/09 Q0993 19.6mph 11°C 9°C 11.8°C
07/01/23 11:50 EGNX 071150Z 19016KT 9999 SCT010 BKN020 11/09 Q0993 18.4mph 11°C 9°C 11.8°C
07/01/23 11:20 EGNX 071120Z 20018G28KT 9999 3500NW -RA BKN012 11/09 Q0993 -RA 20.7mph 32.2mph 11°C 9°C 11.8°C
07/01/23 10:50 EGNX 071050Z 18018KT 9999 -RA BKN017 11/09 Q0994 -RA 20.7mph 11°C 9°C 11.8°C
07/01/23 09:50 EGNX 070950Z 17020G31KT 9999 -RA BKN012 10/09 Q0994 -RA 23.0mph 35.7mph 10°C 9°C 10.8°C
07/01/23 09:20 EGNX 070920Z 17020G30KT 9999 -RA BKN013 10/09 Q0994 -RA 23.0mph 34.5mph 10°C 9°C 10.8°C
07/01/23 08:50 EGNX 070850Z 17020KT 9999 -RA BKN011 10/09 Q0994 -RA 23.0mph 10°C 9°C 10.8°C
07/01/23 08:20 EGNX 070820Z 17021KT 9999 -RA BKN010 10/09 Q0995 -RA 24.2mph 10°C 9°C 10.8°C
07/01/23 07:50 EGNX 070750Z 17022KT 9999 -RA BKN017 11/08 Q0995 -RA 25.3mph 11°C 8°C 11.4°C
07/01/23 07:20 EGNX 070720Z 17021KT 9999 BKN017 11/09 Q0995 24.2mph 11°C 9°C 11.8°C
07/01/23 06:50 EGNX 070650Z 17020KT 9999 -RA BKN015 11/09 Q0996 -RA 23.0mph 11°C 9°C 11.8°C
07/01/23 06:20 EGNX 070620Z 17019KT 9999 -RA BKN014 11/09 Q0997 -RA 21.9mph 11°C 9°C 11.8°C